sensor_id;sensor_type;location;lat;lon;timestamp;temperature;humidity
72905;DHT22;61048;52.162;4.516;2023-07-29T00:01:11;21.00;68.80
72905;DHT22;61048;52.162;4.516;2023-07-29T00:03:38;21.00;68.80
72905;DHT22;61048;52.162;4.516;2023-07-29T00:06:06;21.00;68.80
72905;DHT22;61048;52.162;4.516;2023-07-29T00:08:33;21.00;68.80
72905;DHT22;61048;52.162;4.516;2023-07-29T00:11:00;21.10;68.90
72905;DHT22;61048;52.162;4.516;2023-07-29T00:13:28;21.10;68.90
72905;DHT22;61048;52.162;4.516;2023-07-29T00:15:55;21.10;68.60
72905;DHT22;61048;52.162;4.516;2023-07-29T00:18:22;21.10;68.60
72905;DHT22;61048;52.162;4.516;2023-07-29T00:20:49;21.10;68.60
72905;DHT22;61048;52.162;4.516;2023-07-29T00:23:17;21.10;68.60
72905;DHT22;61048;52.162;4.516;2023-07-29T00:25:45;21.10;68.40
72905;DHT22;61048;52.162;4.516;2023-07-29T00:28:12;21.10;68.30
72905;DHT22;61048;52.162;4.516;2023-07-29T00:30:43;21.10;68.30
72905;DHT22;61048;52.162;4.516;2023-07-29T00:33:10;21.10;68.20
72905;DHT22;61048;52.162;4.516;2023-07-29T00:35:37;21.10;68.30
72905;DHT22;61048;52.162;4.516;2023-07-29T00:38:04;21.10;68.20
72905;DHT22;61048;52.162;4.516;2023-07-29T00:40:35;21.20;68.10
72905;DHT22;61048;52.162;4.516;2023-07-29T00:43:02;21.10;67.90
72905;DHT22;61048;52.162;4.516;2023-07-29T00:45:30;21.10;67.90
72905;DHT22;61048;52.162;4.516;2023-07-29T00:47:59;21.20;67.80
72905;DHT22;61048;52.162;4.516;2023-07-29T00:50:28;21.20;67.90
72905;DHT22;61048;52.162;4.516;2023-07-29T00:52:55;21.20;67.80
72905;DHT22;61048;52.162;4.516;2023-07-29T00:55:23;21.20;67.90
72905;DHT22;61048;52.162;4.516;2023-07-29T00:57:50;21.20;67.70
72905;DHT22;61048;52.162;4.516;2023-07-29T01:00:20;21.20;67.80
72905;DHT22;61048;52.162;4.516;2023-07-29T01:02:47;21.20;67.70
72905;DHT22;61048;52.162;4.516;2023-07-29T01:05:16;21.20;67.80
72905;DHT22;61048;52.162;4.516;2023-07-29T01:07:49;21.20;67.80
72905;DHT22;61048;52.162;4.516;2023-07-29T01:10:26;21.20;67.70
72905;DHT22;61048;52.162;4.516;2023-07-29T01:13:02;21.20;67.70
72905;DHT22;61048;52.162;4.516;2023-07-29T01:15:36;21.20;67.70
72905;DHT22;61048;52.162;4.516;2023-07-29T01:18:10;21.20;67.60
72905;DHT22;61048;52.162;4.516;2023-07-29T01:20:40;21.20;67.70
72905;DHT22;61048;52.162;4.516;2023-07-29T01:23:08;21.20;67.60
72905;DHT22;61048;52.162;4.516;2023-07-29T01:25:36;21.20;67.70
72905;DHT22;61048;52.162;4.516;2023-07-29T01:28:03;21.20;67.50
72905;DHT22;61048;52.162;4.516;2023-07-29T01:30:33;21.30;67.50
72905;DHT22;61048;52.162;4.516;2023-07-29T01:33:08;21.20;67.40
72905;DHT22;61048;52.162;4.516;2023-07-29T01:35:42;21.20;67.40
72905;DHT22;61048;52.162;4.516;2023-07-29T01:38:14;21.30;67.40
72905;DHT22;61048;52.162;4.516;2023-07-29T01:40:45;21.30;67.40
72905;DHT22;61048;52.162;4.516;2023-07-29T01:43:12;21.20;67.40
72905;DHT22;61048;52.162;4.516;2023-07-29T01:45:40;21.30;67.40
72905;DHT22;61048;52.162;4.516;2023-07-29T01:48:07;21.30;67.40
72905;DHT22;61048;52.162;4.516;2023-07-29T01:50:34;21.30;67.30
72905;DHT22;61048;52.162;4.516;2023-07-29T01:53:01;21.30;67.30
72905;DHT22;61048;52.162;4.516;2023-07-29T01:55:29;21.30;67.10
72905;DHT22;61048;52.162;4.516;2023-07-29T01:57:57;21.30;67.10
72905;DHT22;61048;52.162;4.516;2023-07-29T02:00:24;21.30;67.30
72905;DHT22;61048;52.162;4.516;2023-07-29T02:02:51;21.30;67.40
72905;DHT22;61048;52.162;4.516;2023-07-29T02:05:18;21.30;67.50
72905;DHT22;61048;52.162;4.516;2023-07-29T02:07:45;21.30;67.80
72905;DHT22;61048;52.162;4.516;2023-07-29T02:10:12;21.30;67.40
72905;DHT22;61048;52.162;4.516;2023-07-29T02:12:39;21.30;67.70
72905;DHT22;61048;52.162;4.516;2023-07-29T02:15:08;21.30;67.60
72905;DHT22;61048;52.162;4.516;2023-07-29T02:17:36;21.30;67.40
72905;DHT22;61048;52.162;4.516;2023-07-29T02:20:03;21.30;67.40
72905;DHT22;61048;52.162;4.516;2023-07-29T02:22:33;21.30;67.60
72905;DHT22;61048;52.162;4.516;2023-07-29T02:25:00;21.30;67.50
72905;DHT22;61048;52.162;4.516;2023-07-29T02:27:28;21.30;67.40
72905;DHT22;61048;52.162;4.516;2023-07-29T02:29:55;21.30;67.50
72905;DHT22;61048;52.162;4.516;2023-07-29T02:32:23;21.30;67.40
72905;DHT22;61048;52.162;4.516;2023-07-29T02:34:50;21.30;67.40
72905;DHT22;61048;52.162;4.516;2023-07-29T02:37:17;21.30;67.40
72905;DHT22;61048;52.162;4.516;2023-07-29T02:39:44;21.30;67.40
72905;DHT22;61048;52.162;4.516;2023-07-29T02:42:11;21.30;67.30
72905;DHT22;61048;52.162;4.516;2023-07-29T02:44:39;21.30;67.30
72905;DHT22;61048;52.162;4.516;2023-07-29T02:47:06;21.30;67.30
72905;DHT22;61048;52.162;4.516;2023-07-29T02:49:35;21.30;67.40
72905;DHT22;61048;52.162;4.516;2023-07-29T02:52:02;21.30;67.20
72905;DHT22;61048;52.162;4.516;2023-07-29T02:54:29;21.30;67.20
72905;DHT22;61048;52.162;4.516;2023-07-29T02:56:55;21.30;67.40
72905;DHT22;61048;52.162;4.516;2023-07-29T02:59:22;21.30;67.40
72905;DHT22;61048;52.162;4.516;2023-07-29T03:01:50;21.30;67.40
72905;DHT22;61048;52.162;4.516;2023-07-29T03:04:17;21.30;67.10
72905;DHT22;61048;52.162;4.516;2023-07-29T03:06:45;21.30;67.30
72905;DHT22;61048;52.162;4.516;2023-07-29T03:09:13;21.30;67.20
72905;DHT22;61048;52.162;4.516;2023-07-29T03:11:40;21.30;67.10
72905;DHT22;61048;52.162;4.516;2023-07-29T03:14:07;21.30;67.20
72905;DHT22;61048;52.162;4.516;2023-07-29T03:16:35;21.30;67.10
72905;DHT22;61048;52.162;4.516;2023-07-29T03:19:01;21.30;67.20
72905;DHT22;61048;52.162;4.516;2023-07-29T03:21:28;21.30;67.20
72905;DHT22;61048;52.162;4.516;2023-07-29T03:23:57;21.30;67.20
72905;DHT22;61048;52.162;4.516;2023-07-29T03:26:23;21.30;67.10
72905;DHT22;61048;52.162;4.516;2023-07-29T03:28:50;21.30;67.10
72905;DHT22;61048;52.162;4.516;2023-07-29T03:31:17;21.30;67.10
72905;DHT22;61048;52.162;4.516;2023-07-29T03:33:44;21.30;67.20
72905;DHT22;61048;52.162;4.516;2023-07-29T03:36:11;21.30;67.10
72905;DHT22;61048;52.162;4.516;2023-07-29T03:38:39;21.30;67.20
72905;DHT22;61048;52.162;4.516;2023-07-29T03:41:08;21.30;67.10
72905;DHT22;61048;52.162;4.516;2023-07-29T03:43:35;21.30;67.10
72905;DHT22;61048;52.162;4.516;2023-07-29T03:46:02;21.30;67.00
72905;DHT22;61048;52.162;4.516;2023-07-29T03:48:29;21.30;67.10
72905;DHT22;61048;52.162;4.516;2023-07-29T03:50:56;21.30;67.00
72905;DHT22;61048;52.162;4.516;2023-07-29T03:53:23;21.30;67.00
72905;DHT22;61048;52.162;4.516;2023-07-29T03:55:50;21.30;67.00
72905;DHT22;61048;52.162;4.516;2023-07-29T03:58:19;21.30;67.00
72905;DHT22;61048;52.162;4.516;2023-07-29T04:00:46;21.30;67.00
72905;DHT22;61048;52.162;4.516;2023-07-29T04:03:14;21.30;67.00
72905;DHT22;61048;52.162;4.516;2023-07-29T04:05:41;21.30;67.00
72905;DHT22;61048;52.162;4.516;2023-07-29T04:08:08;21.30;66.90
72905;DHT22;61048;52.162;4.516;2023-07-29T04:10:35;21.30;67.00
72905;DHT22;61048;52.162;4.516;2023-07-29T04:13:03;21.30;67.10
72905;DHT22;61048;52.162;4.516;2023-07-29T04:15:32;21.30;67.00
72905;DHT22;61048;52.162;4.516;2023-07-29T04:17:59;21.30;67.00
72905;DHT22;61048;52.162;4.516;2023-07-29T04:20:25;21.30;67.10
72905;DHT22;61048;52.162;4.516;2023-07-29T04:22:52;21.30;67.20
72905;DHT22;61048;52.162;4.516;2023-07-29T04:25:19;21.30;67.20
72905;DHT22;61048;52.162;4.516;2023-07-29T04:27:46;21.30;67.30
72905;DHT22;61048;52.162;4.516;2023-07-29T04:30:13;21.30;67.10
72905;DHT22;61048;52.162;4.516;2023-07-29T04:32:42;21.30;67.20
72905;DHT22;61048;52.162;4.516;2023-07-29T04:35:10;21.30;67.20
72905;DHT22;61048;52.162;4.516;2023-07-29T04:37:37;21.30;67.00
72905;DHT22;61048;52.162;4.516;2023-07-29T04:40:05;21.30;67.10
72905;DHT22;61048;52.162;4.516;2023-07-29T04:42:32;21.40;67.10
72905;DHT22;61048;52.162;4.516;2023-07-29T04:44:59;21.30;67.00
72905;DHT22;61048;52.162;4.516;2023-07-29T04:47:26;21.30;67.10
72905;DHT22;61048;52.162;4.516;2023-07-29T04:49:54;21.30;67.10
72905;DHT22;61048;52.162;4.516;2023-07-29T04:52:21;21.40;67.10
72905;DHT22;61048;52.162;4.516;2023-07-29T04:54:48;21.30;67.10
72905;DHT22;61048;52.162;4.516;2023-07-29T04:57:15;21.40;67.30
72905;DHT22;61048;52.162;4.516;2023-07-29T04:59:42;21.40;67.20
72905;DHT22;61048;52.162;4.516;2023-07-29T05:02:09;21.40;66.90
72905;DHT22;61048;52.162;4.516;2023-07-29T05:04:36;21.40;67.00
72905;DHT22;61048;52.162;4.516;2023-07-29T05:07:05;21.40;67.00
72905;DHT22;61048;52.162;4.516;2023-07-29T05:09:32;21.40;67.00
72905;DHT22;61048;52.162;4.516;2023-07-29T05:11:59;21.40;67.00
72905;DHT22;61048;52.162;4.516;2023-07-29T05:14:26;21.30;67.10
72905;DHT22;61048;52.162;4.516;2023-07-29T05:16:53;21.30;67.00
72905;DHT22;61048;52.162;4.516;2023-07-29T05:19:20;21.30;66.90
72905;DHT22;61048;52.162;4.516;2023-07-29T05:21:47;21.30;66.90
72905;DHT22;61048;52.162;4.516;2023-07-29T05:24:15;21.30;67.10
72905;DHT22;61048;52.162;4.516;2023-07-29T05:26:42;21.40;67.10
72905;DHT22;61048;52.162;4.516;2023-07-29T05:29:09;21.30;67.10
72905;DHT22;61048;52.162;4.516;2023-07-29T05:31:36;21.40;67.10
72905;DHT22;61048;52.162;4.516;2023-07-29T05:34:03;21.40;67.20
72905;DHT22;61048;52.162;4.516;2023-07-29T05:36:30;21.40;67.20
72905;DHT22;61048;52.162;4.516;2023-07-29T05:38:56;21.40;67.30
72905;DHT22;61048;52.162;4.516;2023-07-29T05:41:25;21.40;67.20
72905;DHT22;61048;52.162;4.516;2023-07-29T05:43:53;21.40;67.20
72905;DHT22;61048;52.162;4.516;2023-07-29T05:46:20;21.40;67.10
72905;DHT22;61048;52.162;4.516;2023-07-29T05:48:47;21.40;67.10
72905;DHT22;61048;52.162;4.516;2023-07-29T05:51:14;21.40;67.00
72905;DHT22;61048;52.162;4.516;2023-07-29T05:53:41;21.40;67.10
72905;DHT22;61048;52.162;4.516;2023-07-29T05:56:08;21.40;67.20
72905;DHT22;61048;52.162;4.516;2023-07-29T05:58:37;21.40;67.00
72905;DHT22;61048;52.162;4.516;2023-07-29T06:01:04;21.40;67.10
72905;DHT22;61048;52.162;4.516;2023-07-29T06:03:31;21.40;67.30
72905;DHT22;61048;52.162;4.516;2023-07-29T06:05:58;21.40;67.10
72905;DHT22;61048;52.162;4.516;2023-07-29T06:08:25;21.40;67.10
72905;DHT22;61048;52.162;4.516;2023-07-29T06:10:54;21.40;67.00
72905;DHT22;61048;52.162;4.516;2023-07-29T06:13:21;21.40;67.20
72905;DHT22;61048;52.162;4.516;2023-07-29T06:15:49;21.40;67.10
72905;DHT22;61048;52.162;4.516;2023-07-29T06:18:16;21.40;67.10
72905;DHT22;61048;52.162;4.516;2023-07-29T06:20:43;21.50;67.30
72905;DHT22;61048;52.162;4.516;2023-07-29T06:23:10;21.40;67.20
72905;DHT22;61048;52.162;4.516;2023-07-29T06:25:37;21.50;67.10
72905;DHT22;61048;52.162;4.516;2023-07-29T06:28:04;21.50;67.20
72905;DHT22;61048;52.162;4.516;2023-07-29T06:30:31;21.50;67.10
72905;DHT22;61048;52.162;4.516;2023-07-29T06:32:59;21.50;67.30
72905;DHT22;61048;52.162;4.516;2023-07-29T06:35:26;21.50;67.20
72905;DHT22;61048;52.162;4.516;2023-07-29T06:37:53;21.50;67.10
72905;DHT22;61048;52.162;4.516;2023-07-29T06:40:20;21.50;67.10
72905;DHT22;61048;52.162;4.516;2023-07-29T06:42:47;21.50;67.20
72905;DHT22;61048;52.162;4.516;2023-07-29T06:45:14;21.50;67.20
72905;DHT22;61048;52.162;4.516;2023-07-29T06:47:41;21.50;67.20
72905;DHT22;61048;52.162;4.516;2023-07-29T06:50:10;21.50;67.20
72905;DHT22;61048;52.162;4.516;2023-07-29T06:52:37;21.50;67.20
72905;DHT22;61048;52.162;4.516;2023-07-29T06:55:06;21.50;67.10
72905;DHT22;61048;52.162;4.516;2023-07-29T06:57:33;21.50;67.10
72905;DHT22;61048;52.162;4.516;2023-07-29T07:00:00;21.60;67.10
72905;DHT22;61048;52.162;4.516;2023-07-29T07:02:27;21.60;67.10
72905;DHT22;61048;52.162;4.516;2023-07-29T07:04:54;21.60;67.00
72905;DHT22;61048;52.162;4.516;2023-07-29T07:07:22;21.60;66.90
72905;DHT22;61048;52.162;4.516;2023-07-29T07:09:49;21.60;66.90
72905;DHT22;61048;52.162;4.516;2023-07-29T07:12:16;21.60;66.70
72905;DHT22;61048;52.162;4.516;2023-07-29T07:14:43;21.60;66.80
72905;DHT22;61048;52.162;4.516;2023-07-29T07:17:09;21.60;66.90
72905;DHT22;61048;52.162;4.516;2023-07-29T07:19:36;21.60;66.90
72905;DHT22;61048;52.162;4.516;2023-07-29T07:22:03;21.70;66.80
72905;DHT22;61048;52.162;4.516;2023-07-29T07:24:32;21.70;66.60
72905;DHT22;61048;52.162;4.516;2023-07-29T07:26:59;21.70;66.40
72905;DHT22;61048;52.162;4.516;2023-07-29T07:29:25;21.70;66.40
72905;DHT22;61048;52.162;4.516;2023-07-29T07:31:54;21.70;66.40
72905;DHT22;61048;52.162;4.516;2023-07-29T07:34:21;21.70;66.40
72905;DHT22;61048;52.162;4.516;2023-07-29T07:36:48;21.80;66.50
72905;DHT22;61048;52.162;4.516;2023-07-29T07:39:15;21.80;66.40
72905;DHT22;61048;52.162;4.516;2023-07-29T07:41:44;21.80;66.30
72905;DHT22;61048;52.162;4.516;2023-07-29T07:44:11;21.90;66.10
72905;DHT22;61048;52.162;4.516;2023-07-29T07:46:40;21.90;66.10
72905;DHT22;61048;52.162;4.516;2023-07-29T07:49:07;21.90;66.00
72905;DHT22;61048;52.162;4.516;2023-07-29T07:51:34;21.90;65.90
72905;DHT22;61048;52.162;4.516;2023-07-29T07:54:01;21.90;65.80
72905;DHT22;61048;52.162;4.516;2023-07-29T07:56:28;21.90;65.80
72905;DHT22;61048;52.162;4.516;2023-07-29T07:58:56;21.90;65.80
72905;DHT22;61048;52.162;4.516;2023-07-29T08:01:23;21.90;65.70
72905;DHT22;61048;52.162;4.516;2023-07-29T08:03:50;21.90;65.70
72905;DHT22;61048;52.162;4.516;2023-07-29T08:06:17;21.90;65.60
72905;DHT22;61048;52.162;4.516;2023-07-29T08:08:44;21.90;65.60
72905;DHT22;61048;52.162;4.516;2023-07-29T08:11:11;21.90;65.50
72905;DHT22;61048;52.162;4.516;2023-07-29T08:13:38;21.90;65.50
72905;DHT22;61048;52.162;4.516;2023-07-29T08:16:06;21.90;65.60
72905;DHT22;61048;52.162;4.516;2023-07-29T08:18:33;21.90;65.50
72905;DHT22;61048;52.162;4.516;2023-07-29T08:21:00;21.90;65.50
72905;DHT22;61048;52.162;4.516;2023-07-29T08:23:30;21.90;65.40
72905;DHT22;61048;52.162;4.516;2023-07-29T08:25:59;22.00;65.20
72905;DHT22;61048;52.162;4.516;2023-07-29T08:28:27;22.00;65.30
72905;DHT22;61048;52.162;4.516;2023-07-29T08:30:55;22.00;65.20
72905;DHT22;61048;52.162;4.516;2023-07-29T08:33:23;22.00;65.30
72905;DHT22;61048;52.162;4.516;2023-07-29T08:35:50;22.00;65.10
72905;DHT22;61048;52.162;4.516;2023-07-29T08:38:17;22.00;64.90
72905;DHT22;61048;52.162;4.516;2023-07-29T08:40:47;22.00;64.80
72905;DHT22;61048;52.162;4.516;2023-07-29T08:43:17;22.10;64.80
72905;DHT22;61048;52.162;4.516;2023-07-29T08:45:46;22.10;64.80
72905;DHT22;61048;52.162;4.516;2023-07-29T08:48:15;22.10;64.70
72905;DHT22;61048;52.162;4.516;2023-07-29T08:50:46;22.20;64.60
72905;DHT22;61048;52.162;4.516;2023-07-29T08:53:14;22.20;64.50
72905;DHT22;61048;52.162;4.516;2023-07-29T08:55:41;22.20;64.30
72905;DHT22;61048;52.162;4.516;2023-07-29T08:58:08;22.20;64.30
72905;DHT22;61048;52.162;4.516;2023-07-29T09:00:35;22.20;64.10
72905;DHT22;61048;52.162;4.516;2023-07-29T09:03:02;22.20;64.10
72905;DHT22;61048;52.162;4.516;2023-07-29T09:05:33;22.20;64.10
72905;DHT22;61048;52.162;4.516;2023-07-29T09:08:02;22.20;64.00
72905;DHT22;61048;52.162;4.516;2023-07-29T09:10:29;22.20;63.90
72905;DHT22;61048;52.162;4.516;2023-07-29T09:12:56;22.20;63.90
72905;DHT22;61048;52.162;4.516;2023-07-29T09:15:27;22.20;63.90
72905;DHT22;61048;52.162;4.516;2023-07-29T09:17:55;22.20;63.90
72905;DHT22;61048;52.162;4.516;2023-07-29T09:20:26;22.20;63.80
72905;DHT22;61048;52.162;4.516;2023-07-29T09:22:54;22.20;63.60
72905;DHT22;61048;52.162;4.516;2023-07-29T09:25:26;22.30;63.70
72905;DHT22;61048;52.162;4.516;2023-07-29T09:27:53;22.20;63.70
72905;DHT22;61048;52.162;4.516;2023-07-29T09:30:25;22.20;63.60
72905;DHT22;61048;52.162;4.516;2023-07-29T09:32:55;22.30;63.60
72905;DHT22;61048;52.162;4.516;2023-07-29T09:35:22;22.30;63.60
72905;DHT22;61048;52.162;4.516;2023-07-29T09:37:50;22.30;63.50
72905;DHT22;61048;52.162;4.516;2023-07-29T09:40:17;22.30;63.50
72905;DHT22;61048;52.162;4.516;2023-07-29T09:42:49;22.30;63.60
72905;DHT22;61048;52.162;4.516;2023-07-29T09:45:21;22.30;63.50
72905;DHT22;61048;52.162;4.516;2023-07-29T09:47:48;22.30;63.50
72905;DHT22;61048;52.162;4.516;2023-07-29T09:50:15;22.30;63.60
72905;DHT22;61048;52.162;4.516;2023-07-29T09:52:43;22.30;63.70
72905;DHT22;61048;52.162;4.516;2023-07-29T09:55:12;22.30;63.50
72905;DHT22;61048;52.162;4.516;2023-07-29T09:57:39;22.30;63.50
72905;DHT22;61048;52.162;4.516;2023-07-29T10:00:11;22.40;63.50
72905;DHT22;61048;52.162;4.516;2023-07-29T10:02:39;22.40;63.50
72905;DHT22;61048;52.162;4.516;2023-07-29T10:05:08;22.40;63.50
72905;DHT22;61048;52.162;4.516;2023-07-29T10:07:36;22.40;63.50
72905;DHT22;61048;52.162;4.516;2023-07-29T10:10:05;22.40;63.40
72905;DHT22;61048;52.162;4.516;2023-07-29T10:12:32;22.40;63.50
72905;DHT22;61048;52.162;4.516;2023-07-29T10:15:00;22.40;63.50
72905;DHT22;61048;52.162;4.516;2023-07-29T10:17:30;22.50;63.50
72905;DHT22;61048;52.162;4.516;2023-07-29T10:19:57;22.50;63.60
72905;DHT22;61048;52.162;4.516;2023-07-29T10:22:28;22.50;63.60
72905;DHT22;61048;52.162;4.516;2023-07-29T10:25:03;22.50;63.50
72905;DHT22;61048;52.162;4.516;2023-07-29T10:27:32;22.50;63.40
72905;DHT22;61048;52.162;4.516;2023-07-29T10:35:55;22.50;63.70
72905;DHT22;61048;52.162;4.516;2023-07-29T10:38:23;22.50;63.80
72905;DHT22;61048;52.162;4.516;2023-07-29T10:40:52;22.50;64.10
72905;DHT22;61048;52.162;4.516;2023-07-29T10:43:25;22.60;64.30
72905;DHT22;61048;52.162;4.516;2023-07-29T10:45:52;22.60;64.40
72905;DHT22;61048;52.162;4.516;2023-07-29T10:48:41;22.60;64.40
72905;DHT22;61048;52.162;4.516;2023-07-29T10:51:26;22.70;64.30
72905;DHT22;61048;52.162;4.516;2023-07-29T10:53:56;22.70;64.70
72905;DHT22;61048;52.162;4.516;2023-07-29T10:56:33;22.70;65.60
72905;DHT22;61048;52.162;4.516;2023-07-29T11:01:52;22.80;64.90
72905;DHT22;61048;52.162;4.516;2023-07-29T11:04:23;22.80;64.40
72905;DHT22;61048;52.162;4.516;2023-07-29T11:07:24;22.80;64.70
72905;DHT22;61048;52.162;4.516;2023-07-29T11:09:58;22.80;64.80
72905;DHT22;61048;52.162;4.516;2023-07-29T11:12:39;22.80;64.60
72905;DHT22;61048;52.162;4.516;2023-07-29T11:15:19;22.80;64.50
72905;DHT22;61048;52.162;4.516;2023-07-29T11:17:47;22.80;64.80
72905;DHT22;61048;52.162;4.516;2023-07-29T11:20:15;22.80;64.80
72905;DHT22;61048;52.162;4.516;2023-07-29T11:22:44;22.80;64.90
72905;DHT22;61048;52.162;4.516;2023-07-29T11:25:12;22.80;64.80
72905;DHT22;61048;52.162;4.516;2023-07-29T11:27:40;22.80;64.80
72905;DHT22;61048;52.162;4.516;2023-07-29T11:30:08;22.80;65.00
72905;DHT22;61048;52.162;4.516;2023-07-29T11:32:37;22.80;64.90
72905;DHT22;61048;52.162;4.516;2023-07-29T11:35:05;22.80;65.10
72905;DHT22;61048;52.162;4.516;2023-07-29T11:37:33;22.80;65.20
72905;DHT22;61048;52.162;4.516;2023-07-29T11:40:02;22.70;65.10
72905;DHT22;61048;52.162;4.516;2023-07-29T11:42:32;22.70;65.10
72905;DHT22;61048;52.162;4.516;2023-07-29T11:44:59;22.70;65.20
72905;DHT22;61048;52.162;4.516;2023-07-29T11:47:26;22.70;65.30
72905;DHT22;61048;52.162;4.516;2023-07-29T11:49:53;22.70;65.00
72905;DHT22;61048;52.162;4.516;2023-07-29T11:52:20;22.70;65.60
72905;DHT22;61048;52.162;4.516;2023-07-29T11:54:48;22.70;65.50
72905;DHT22;61048;52.162;4.516;2023-07-29T11:57:17;22.80;65.20
72905;DHT22;61048;52.162;4.516;2023-07-29T11:59:45;22.80;65.20
72905;DHT22;61048;52.162;4.516;2023-07-29T12:02:14;22.80;64.80
72905;DHT22;61048;52.162;4.516;2023-07-29T12:04:42;22.80;65.30
72905;DHT22;61048;52.162;4.516;2023-07-29T12:07:10;22.90;65.50
72905;DHT22;61048;52.162;4.516;2023-07-29T12:09:37;22.90;65.00
72905;DHT22;61048;52.162;4.516;2023-07-29T12:12:05;22.90;64.80
72905;DHT22;61048;52.162;4.516;2023-07-29T12:14:34;22.90;65.20
72905;DHT22;61048;52.162;4.516;2023-07-29T12:17:02;22.90;65.70
72905;DHT22;61048;52.162;4.516;2023-07-29T12:19:33;22.90;65.70
72905;DHT22;61048;52.162;4.516;2023-07-29T12:22:01;22.90;65.60
72905;DHT22;61048;52.162;4.516;2023-07-29T12:24:29;23.00;65.60
72905;DHT22;61048;52.162;4.516;2023-07-29T12:26:57;23.00;65.50
72905;DHT22;61048;52.162;4.516;2023-07-29T12:29:23;23.00;65.50
72905;DHT22;61048;52.162;4.516;2023-07-29T12:31:58;23.00;65.30
72905;DHT22;61048;52.162;4.516;2023-07-29T12:34:26;23.00;65.10
72905;DHT22;61048;52.162;4.516;2023-07-29T12:36:54;23.00;64.90
72905;DHT22;61048;52.162;4.516;2023-07-29T12:39:23;23.00;64.80
72905;DHT22;61048;52.162;4.516;2023-07-29T12:41:53;23.00;64.70
72905;DHT22;61048;52.162;4.516;2023-07-29T12:44:24;23.00;64.60
72905;DHT22;61048;52.162;4.516;2023-07-29T12:46:52;23.00;64.40
72905;DHT22;61048;52.162;4.516;2023-07-29T12:49:20;23.00;64.40
72905;DHT22;61048;52.162;4.516;2023-07-29T12:51:48;23.00;64.40
72905;DHT22;61048;52.162;4.516;2023-07-29T12:54:14;23.00;64.30
72905;DHT22;61048;52.162;4.516;2023-07-29T12:56:41;23.00;64.30
72905;DHT22;61048;52.162;4.516;2023-07-29T12:59:08;23.00;64.10
72905;DHT22;61048;52.162;4.516;2023-07-29T13:01:35;23.00;64.00
72905;DHT22;61048;52.162;4.516;2023-07-29T13:04:02;22.90;64.20
72905;DHT22;61048;52.162;4.516;2023-07-29T13:06:31;23.00;64.20
72905;DHT22;61048;52.162;4.516;2023-07-29T13:08:57;23.00;64.10
72905;DHT22;61048;52.162;4.516;2023-07-29T13:11:24;23.10;64.10
72905;DHT22;61048;52.162;4.516;2023-07-29T13:13:51;23.10;64.00
72905;DHT22;61048;52.162;4.516;2023-07-29T13:16:18;23.10;64.00
72905;DHT22;61048;52.162;4.516;2023-07-29T13:18:45;23.10;63.60
72905;DHT22;61048;52.162;4.516;2023-07-29T13:21:12;23.10;63.70
72905;DHT22;61048;52.162;4.516;2023-07-29T13:23:40;23.20;63.30
72905;DHT22;61048;52.162;4.516;2023-07-29T13:26:07;23.10;63.50
72905;DHT22;61048;52.162;4.516;2023-07-29T13:28:34;23.20;63.60
72905;DHT22;61048;52.162;4.516;2023-07-29T13:31:01;23.20;63.70
72905;DHT22;61048;52.162;4.516;2023-07-29T13:33:28;23.20;63.60
72905;DHT22;61048;52.162;4.516;2023-07-29T13:35:59;23.30;63.70
72905;DHT22;61048;52.162;4.516;2023-07-29T13:38:26;23.30;63.70
72905;DHT22;61048;52.162;4.516;2023-07-29T13:40:54;23.30;63.40
72905;DHT22;61048;52.162;4.516;2023-07-29T13:43:21;23.30;63.50
72905;DHT22;61048;52.162;4.516;2023-07-29T13:45:48;23.40;63.40
72905;DHT22;61048;52.162;4.516;2023-07-29T13:48:15;23.40;63.50
72905;DHT22;61048;52.162;4.516;2023-07-29T13:50:42;23.40;63.50
72905;DHT22;61048;52.162;4.516;2023-07-29T13:53:09;23.40;63.30
72905;DHT22;61048;52.162;4.516;2023-07-29T13:55:36;23.40;63.40
72905;DHT22;61048;52.162;4.516;2023-07-29T13:58:05;23.40;63.20
72905;DHT22;61048;52.162;4.516;2023-07-29T14:00:32;23.40;63.20
72905;DHT22;61048;52.162;4.516;2023-07-29T14:02:59;23.40;63.10
72905;DHT22;61048;52.162;4.516;2023-07-29T14:05:26;23.40;63.10
72905;DHT22;61048;52.162;4.516;2023-07-29T14:07:53;23.40;63.00
72905;DHT22;61048;52.162;4.516;2023-07-29T14:10:21;23.50;62.90
72905;DHT22;61048;52.162;4.516;2023-07-29T14:12:48;23.50;62.90
72905;DHT22;61048;52.162;4.516;2023-07-29T14:15:16;23.50;62.60
72905;DHT22;61048;52.162;4.516;2023-07-29T14:17:44;23.50;62.60
72905;DHT22;61048;52.162;4.516;2023-07-29T14:20:11;23.50;62.40
72905;DHT22;61048;52.162;4.516;2023-07-29T14:22:38;23.50;62.30
72905;DHT22;61048;52.162;4.516;2023-07-29T14:25:06;23.50;62.20
72905;DHT22;61048;52.162;4.516;2023-07-29T14:27:33;23.50;62.10
72905;DHT22;61048;52.162;4.516;2023-07-29T14:30:00;23.50;62.00
72905;DHT22;61048;52.162;4.516;2023-07-29T14:32:28;23.50;61.90
72905;DHT22;61048;52.162;4.516;2023-07-29T14:34:56;23.50;61.90
72905;DHT22;61048;52.162;4.516;2023-07-29T14:37:23;23.50;61.80
72905;DHT22;61048;52.162;4.516;2023-07-29T14:39:50;23.60;61.70
72905;DHT22;61048;52.162;4.516;2023-07-29T14:42:16;23.50;61.60
72905;DHT22;61048;52.162;4.516;2023-07-29T14:44:43;23.60;61.50
72905;DHT22;61048;52.162;4.516;2023-07-29T14:47:10;23.60;61.40
72905;DHT22;61048;52.162;4.516;2023-07-29T14:49:39;23.60;61.30
72905;DHT22;61048;52.162;4.516;2023-07-29T14:52:06;23.60;61.10
72905;DHT22;61048;52.162;4.516;2023-07-29T14:54:33;23.60;61.10
72905;DHT22;61048;52.162;4.516;2023-07-29T14:57:00;23.60;61.10
72905;DHT22;61048;52.162;4.516;2023-07-29T14:59:27;23.60;61.10
72905;DHT22;61048;52.162;4.516;2023-07-29T15:01:54;23.60;61.00
72905;DHT22;61048;52.162;4.516;2023-07-29T15:04:21;23.60;60.90
72905;DHT22;61048;52.162;4.516;2023-07-29T15:06:49;23.70;60.80
72905;DHT22;61048;52.162;4.516;2023-07-29T15:09:17;23.70;60.80
72905;DHT22;61048;52.162;4.516;2023-07-29T15:11:44;23.70;60.70
72905;DHT22;61048;52.162;4.516;2023-07-29T15:14:11;23.70;60.60
72905;DHT22;61048;52.162;4.516;2023-07-29T15:16:38;23.70;60.40
72905;DHT22;61048;52.162;4.516;2023-07-29T15:19:05;23.70;60.50
72905;DHT22;61048;52.162;4.516;2023-07-29T15:21:32;23.70;60.30
72905;DHT22;61048;52.162;4.516;2023-07-29T15:24:01;23.70;60.40
72905;DHT22;61048;52.162;4.516;2023-07-29T15:26:28;23.70;60.40
72905;DHT22;61048;52.162;4.516;2023-07-29T15:28:55;23.70;60.50
72905;DHT22;61048;52.162;4.516;2023-07-29T15:31:22;23.70;60.30
72905;DHT22;61048;52.162;4.516;2023-07-29T15:33:49;23.70;60.40
72905;DHT22;61048;52.162;4.516;2023-07-29T15:36:16;23.80;60.20
72905;DHT22;61048;52.162;4.516;2023-07-29T15:38:43;23.70;60.20
72905;DHT22;61048;52.162;4.516;2023-07-29T15:41:11;23.80;60.20
72905;DHT22;61048;52.162;4.516;2023-07-29T15:43:38;23.80;60.40